sensor_id;sensor_type;location;lat;lon;timestamp;pressure;altitude;pressure_sealevel;temperature;humidity
61786;BME280;47692;53.714;11.372;2023-11-21T00:01:25;100653.13;;;5.70;100.00
61786;BME280;47692;53.714;11.372;2023-11-21T00:03:51;100643.66;;;5.61;100.00
61786;BME280;47692;53.714;11.372;2023-11-21T00:06:19;100646.22;;;5.69;100.00
61786;BME280;47692;53.714;11.372;2023-11-21T00:08:45;100654.84;;;5.69;100.00
61786;BME280;47692;53.714;11.372;2023-11-21T00:11:11;100659.13;;;5.72;100.00
61786;BME280;47692;53.714;11.372;2023-11-21T00:13:36;100656.56;;;5.70;100.00
61786;BME280;47692;53.714;11.372;2023-11-21T00:16:03;100665.19;;;5.69;100.00
61786;BME280;47692;53.714;11.372;2023-11-21T00:18:29;100666.03;;;5.77;100.00
61786;BME280;47692;53.714;11.372;2023-11-21T00:20:55;100666.91;;;5.76;100.00
61786;BME280;47692;53.714;11.372;2023-11-21T00:23:20;100659.16;;;5.70;100.00
61786;BME280;47692;53.714;11.372;2023-11-21T00:25:46;100661.75;;;5.73;100.00
61786;BME280;47692;53.714;11.372;2023-11-21T00:28:11;100662.63;;;5.72;100.00
61786;BME280;47692;53.714;11.372;2023-11-21T00:30:37;100669.50;;;5.70;100.00
61786;BME280;47692;53.714;11.372;2023-11-21T00:33:02;100667.78;;;5.69;100.00
61786;BME280;47692;53.714;11.372;2023-11-21T00:35:28;100670.38;;;5.72;100.00
61786;BME280;47692;53.714;11.372;2023-11-21T00:37:53;100669.53;;;5.67;100.00
61786;BME280;47692;53.714;11.372;2023-11-21T00:40:19;100669.53;;;5.67;100.00
61786;BME280;47692;53.714;11.372;2023-11-21T00:42:46;100665.22;;;5.57;100.00
61786;BME280;47692;53.714;11.372;2023-11-21T00:45:12;100660.94;;;5.53;100.00
61786;BME280;47692;53.714;11.372;2023-11-21T00:47:37;100671.31;;;5.53;100.00
61786;BME280;47692;53.714;11.372;2023-11-21T00:50:04;100671.28;;;5.59;100.00
61786;BME280;47692;53.714;11.372;2023-11-21T00:52:31;100673.84;;;5.60;100.00
61786;BME280;47692;53.714;11.372;2023-11-21T00:54:57;100683.38;;;5.54;100.00
61786;BME280;47692;53.714;11.372;2023-11-21T00:57:24;100679.94;;;5.55;100.00
61786;BME280;47692;53.714;11.372;2023-11-21T00:59:50;100689.44;;;5.51;100.00
61786;BME280;47692;53.714;11.372;2023-11-21T01:02:15;100697.19;;;5.54;100.00
61786;BME280;47692;53.714;11.372;2023-11-21T01:04:41;100704.97;;;5.42;100.00
61786;BME280;47692;53.714;11.372;2023-11-21T01:07:06;100693.75;;;5.50;100.00
61786;BME280;47692;53.714;11.372;2023-11-21T01:09:32;100710.13;;;5.54;100.00
61786;BME280;47692;53.714;11.372;2023-11-21T01:11:57;100704.09;;;5.50;100.00
61786;BME280;47692;53.714;11.372;2023-11-21T01:14:25;100709.28;;;5.50;100.00
61786;BME280;47692;53.714;11.372;2023-11-21T01:16:52;100717.03;;;5.55;100.00
61786;BME280;47692;53.714;11.372;2023-11-21T01:19:18;100707.56;;;5.53;100.00
61786;BME280;47692;53.714;11.372;2023-11-21T01:21:43;100722.22;;;5.54;100.00
61786;BME280;47692;53.714;11.372;2023-11-21T01:24:08;100721.38;;;5.48;100.00
61786;BME280;47692;53.714;11.372;2023-11-21T01:26:34;100723.09;;;5.46;100.00
61786;BME280;47692;53.714;11.372;2023-11-21T01:28:59;100718.78;;;5.41;100.00
61786;BME280;47692;53.714;11.372;2023-11-21T01:31:25;100722.25;;;5.41;100.00
61786;BME280;47692;53.714;11.372;2023-11-21T01:33:54;100707.59;;;5.31;100.00
61786;BME280;47692;53.714;11.372;2023-11-21T01:36:20;100717.97;;;5.31;100.00
61786;BME280;47692;53.714;11.372;2023-11-21T01:38:46;100722.28;;;5.33;100.00
61786;BME280;47692;53.714;11.372;2023-11-21T01:41:13;100712.78;;;5.25;100.00
61786;BME280;47692;53.714;11.372;2023-11-21T01:43:39;100711.94;;;5.21;100.00
61786;BME280;47692;53.714;11.372;2023-11-21T01:46:05;100718.81;;;5.25;100.00
61786;BME280;47692;53.714;11.372;2023-11-21T01:48:31;100724.00;;;5.21;100.00
61786;BME280;47692;53.714;11.372;2023-11-21T01:50:58;100727.44;;;5.18;100.00
61786;BME280;47692;53.714;11.372;2023-11-21T01:53:26;100720.56;;;5.14;100.00
61786;BME280;47692;53.714;11.372;2023-11-21T01:55:53;100724.00;;;5.11;100.00
61786;BME280;47692;53.714;11.372;2023-11-21T01:58:20;100723.16;;;5.06;100.00
61786;BME280;47692;53.714;11.372;2023-11-21T02:00:47;100724.84;;;5.13;100.00
61786;BME280;47692;53.714;11.372;2023-11-21T02:03:16;100726.59;;;5.13;100.00
61786;BME280;47692;53.714;11.372;2023-11-21T02:05:41;100731.75;;;5.14;100.00
61786;BME280;47692;53.714;11.372;2023-11-21T02:08:07;100727.47;;;5.15;100.00
61786;BME280;47692;53.714;11.372;2023-11-21T02:10:34;100738.69;;;5.12;100.00
61786;BME280;47692;53.714;11.372;2023-11-21T02:13:02;100742.13;;;5.11;100.00
61786;BME280;47692;53.714;11.372;2023-11-21T02:15:28;100749.91;;;5.10;100.00
61786;BME280;47692;53.714;11.372;2023-11-21T02:17:54;100755.91;;;5.10;100.00
61786;BME280;47692;53.714;11.372;2023-11-21T02:20:21;100748.13;;;5.07;100.00
61786;BME280;47692;53.714;11.372;2023-11-21T02:22:52;100749.03;;;5.12;100.00
61786;BME280;47692;53.714;11.372;2023-11-21T02:25:28;100754.19;;;5.08;100.00
61786;BME280;47692;53.714;11.372;2023-11-21T02:27:54;100759.34;;;5.03;100.00
61786;BME280;47692;53.714;11.372;2023-11-21T02:30:21;100750.72;;;4.98;100.00
61786;BME280;47692;53.714;11.372;2023-11-21T02:32:48;100757.63;;;4.96;100.00
61786;BME280;47692;53.714;11.372;2023-11-21T02:35:14;100763.66;;;4.92;100.00
61786;BME280;47692;53.714;11.372;2023-11-21T02:37:41;100767.13;;;4.89;100.00
61786;BME280;47692;53.714;11.372;2023-11-21T02:40:09;100777.44;;;4.81;100.00
61786;BME280;47692;53.714;11.372;2023-11-21T02:42:35;100771.41;;;4.79;100.00
61786;BME280;47692;53.714;11.372;2023-11-21T02:45:00;100782.59;;;4.77;100.00
61786;BME280;47692;53.714;11.372;2023-11-21T02:47:26;100783.47;;;4.74;100.00
61786;BME280;47692;53.714;11.372;2023-11-21T02:49:51;100786.91;;;4.73;100.00
61786;BME280;47692;53.714;11.372;2023-11-21T02:52:18;100796.41;;;4.82;100.00
61786;BME280;47692;53.714;11.372;2023-11-21T02:54:44;100789.53;;;4.76;100.00
61786;BME280;47692;53.714;11.372;2023-11-21T02:57:10;100788.63;;;4.77;100.00
61786;BME280;47692;53.714;11.372;2023-11-21T02:59:35;100793.81;;;4.74;100.00
61786;BME280;47692;53.714;11.372;2023-11-21T03:02:01;100792.09;;;4.70;100.00
61786;BME280;47692;53.714;11.372;2023-11-21T03:04:26;100796.41;;;4.76;100.00
61786;BME280;47692;53.714;11.372;2023-11-21T03:06:52;100799.00;;;4.74;100.00
61786;BME280;47692;53.714;11.372;2023-11-21T03:09:17;100798.13;;;4.75;100.00
61786;BME280;47692;53.714;11.372;2023-11-21T03:11:43;100805.88;;;4.77;100.00
61786;BME280;47692;53.714;11.372;2023-11-21T03:14:08;100808.47;;;4.78;100.00
61786;BME280;47692;53.714;11.372;2023-11-21T03:16:34;100809.31;;;4.71;100.00
61786;BME280;47692;53.714;11.372;2023-11-21T03:18:59;100816.22;;;4.72;100.00
61786;BME280;47692;53.714;11.372;2023-11-21T03:21:25;100812.78;;;4.72;100.00
61786;BME280;47692;53.714;11.372;2023-11-21T03:23:51;100817.97;;;4.76;100.00
61786;BME280;47692;53.714;11.372;2023-11-21T03:26:18;100823.13;;;4.70;100.00
61786;BME280;47692;53.714;11.372;2023-11-21T03:28:43;100819.63;;;4.65;100.00
61786;BME280;47692;53.714;11.372;2023-11-21T03:31:09;100824.81;;;4.71;100.00
61786;BME280;47692;53.714;11.372;2023-11-21T03:33:35;100824.84;;;4.68;100.00
61786;BME280;47692;53.714;11.372;2023-11-21T03:36:01;100827.41;;;4.69;100.00
61786;BME280;47692;53.714;11.372;2023-11-21T03:38:26;100829.16;;;4.69;100.00
61786;BME280;47692;53.714;11.372;2023-11-21T03:40:52;100836.06;;;4.70;100.00
61786;BME280;47692;53.714;11.372;2023-11-21T03:43:17;100845.53;;;4.71;100.00
61786;BME280;47692;53.714;11.372;2023-11-21T03:45:42;100837.75;;;4.65;100.00
61786;BME280;47692;53.714;11.372;2023-11-21T03:48:08;100842.88;;;4.59;100.00
61786;BME280;47692;53.714;11.372;2023-11-21T03:50:34;100842.88;;;4.57;100.00
61786;BME280;47692;53.714;11.372;2023-11-21T03:53:00;100848.09;;;4.62;100.00
61786;BME280;47692;53.714;11.372;2023-11-21T03:55:25;100858.41;;;4.59;100.00
61786;BME280;47692;53.714;11.372;2023-11-21T03:57:51;100854.09;;;4.51;100.00
61786;BME280;47692;53.714;11.372;2023-11-21T04:00:17;100857.50;;;4.47;100.00
61786;BME280;47692;53.714;11.372;2023-11-21T04:02:43;100858.38;;;4.46;100.00
61786;BME280;47692;53.714;11.372;2023-11-21T04:05:08;100854.09;;;4.51;100.00
61786;BME280;47692;53.714;11.372;2023-11-21T04:07:35;100860.97;;;4.49;100.00
61786;BME280;47692;53.714;11.372;2023-11-21T04:10:00;100868.75;;;4.54;100.00
61786;BME280;47692;53.714;11.372;2023-11-21T04:12:26;100873.88;;;4.49;100.00
61786;BME280;47692;53.714;11.372;2023-11-21T04:14:51;100878.22;;;4.50;100.00
61786;BME280;47692;53.714;11.372;2023-11-21T04:17:19;100889.41;;;4.49;100.00
61786;BME280;47692;53.714;11.372;2023-11-21T04:19:45;100890.28;;;4.51;100.00
61786;BME280;47692;53.714;11.372;2023-11-21T04:22:11;100886.81;;;4.46;100.00
61786;BME280;47692;53.714;11.372;2023-11-21T04:24:37;100890.25;;;4.45;100.00
61786;BME280;47692;53.714;11.372;2023-11-21T04:27:02;100898.91;;;4.53;100.00
61786;BME280;47692;53.714;11.372;2023-11-21T04:29:28;100901.44;;;4.47;100.00
61786;BME280;47692;53.714;11.372;2023-11-21T04:31:54;100899.75;;;4.48;100.00
61786;BME280;47692;53.714;11.372;2023-11-21T04:34:19;100907.50;;;4.48;100.00
61786;BME280;47692;53.714;11.372;2023-11-21T04:36:45;100926.47;;;4.50;100.00
61786;BME280;47692;53.714;11.372;2023-11-21T04:39:10;100915.25;;;4.46;100.00
61786;BME280;47692;53.714;11.372;2023-11-21T04:41:36;100917.00;;;4.49;100.00
61786;BME280;47692;53.714;11.372;2023-11-21T04:44:05;100933.38;;;4.52;100.00
61786;BME280;47692;53.714;11.372;2023-11-21T04:46:30;100931.63;;;4.48;100.00
61786;BME280;47692;53.714;11.372;2023-11-21T04:48:57;100928.19;;;4.48;100.00
61786;BME280;47692;53.714;11.372;2023-11-21T04:51:22;100928.19;;;4.49;100.00
61786;BME280;47692;53.714;11.372;2023-11-21T04:53:48;100935.09;;;4.53;100.00
61786;BME280;47692;53.714;11.372;2023-11-21T04:56:13;100936.88;;;4.58;100.00
61786;BME280;47692;53.714;11.372;2023-11-21T04:58:39;100936.91;;;4.67;100.00
61786;BME280;47692;53.714;11.372;2023-11-21T05:01:06;100930.00;;;4.63;100.00
61786;BME280;47692;53.714;11.372;2023-11-21T05:03:32;100948.94;;;4.65;100.00
61786;BME280;47692;53.714;11.372;2023-11-21T05:05:57;100950.66;;;4.60;100.00
61786;BME280;47692;53.714;11.372;2023-11-21T05:08:25;100955.81;;;4.57;100.00
61786;BME280;47692;53.714;11.372;2023-11-21T05:10:51;100951.50;;;4.59;100.00
61786;BME280;47692;53.714;11.372;2023-11-21T05:13:17;100955.81;;;4.57;100.00
61786;BME280;47692;53.714;11.372;2023-11-21T05:15:44;100963.53;;;4.50;100.00
61786;BME280;47692;53.714;11.372;2023-11-21T05:18:09;100961.00;;;4.57;100.00
61786;BME280;47692;53.714;11.372;2023-11-21T05:20:35;100954.03;;;4.46;100.00
61786;BME280;47692;53.714;11.372;2023-11-21T05:23:01;100957.47;;;4.48;100.00
61786;BME280;47692;53.714;11.372;2023-11-21T05:25:27;100960.09;;;4.53;100.00
61786;BME280;47692;53.714;11.372;2023-11-21T05:27:52;100966.13;;;4.52;100.00
61786;BME280;47692;53.714;11.372;2023-11-21T05:30:20;100965.28;;;4.56;100.00
61786;BME280;47692;53.714;11.372;2023-11-21T05:32:46;100975.66;;;4.59;100.00
61786;BME280;47692;53.714;11.372;2023-11-21T05:35:12;100963.53;;;4.49;100.00
61786;BME280;47692;53.714;11.372;2023-11-21T05:37:41;100967.81;;;4.45;100.00
61786;BME280;47692;53.714;11.372;2023-11-21T05:40:07;100960.91;;;4.44;100.00
61786;BME280;47692;53.714;11.372;2023-11-21T05:42:34;100965.19;;;4.41;100.00
61786;BME280;47692;53.714;11.372;2023-11-21T05:44:59;100980.75;;;4.45;100.00
61786;BME280;47692;53.714;11.372;2023-11-21T05:47:36;100985.03;;;4.43;100.00
61786;BME280;47692;53.714;11.372;2023-11-21T05:50:01;100978.09;;;4.36;100.00
61786;BME280;47692;53.714;11.372;2023-11-21T05:52:27;100983.28;;;4.41;100.00
61786;BME280;47692;53.714;11.372;2023-11-21T05:54:52;100993.59;;;4.36;100.00
61786;BME280;47692;53.714;11.372;2023-11-21T05:57:18;101002.19;;;4.35;100.00
61786;BME280;47692;53.714;11.372;2023-11-21T05:59:43;101006.47;;;4.30;100.00
61786;BME280;47692;53.714;11.372;2023-11-21T06:02:09;101002.16;;;4.26;100.00
61786;BME280;47692;53.714;11.372;2023-11-21T06:04:34;101007.31;;;4.29;100.00
61786;BME280;47692;53.714;11.372;2023-11-21T06:07:00;101009.06;;;4.30;100.00
61786;BME280;47692;53.714;11.372;2023-11-21T06:09:26;101006.47;;;4.30;100.00
61786;BME280;47692;53.714;11.372;2023-11-21T06:11:52;101009.06;;;4.30;100.00
61786;BME280;47692;53.714;11.372;2023-11-21T06:14:18;101014.28;;;4.33;100.00
61786;BME280;47692;53.714;11.372;2023-11-21T06:16:43;101014.28;;;4.33;100.00
61786;BME280;47692;53.714;11.372;2023-11-21T06:19:10;101020.25;;;4.29;100.00
61786;BME280;47692;53.714;11.372;2023-11-21T06:21:36;101022.03;;;4.33;100.00
61786;BME280;47692;53.714;11.372;2023-11-21T06:24:01;101027.16;;;4.30;100.00
61786;BME280;47692;53.714;11.372;2023-11-21T06:26:27;101022.84;;;4.29;100.00
61786;BME280;47692;53.714;11.372;2023-11-21T06:28:53;101028.88;;;4.31;100.00
61786;BME280;47692;53.714;11.372;2023-11-21T06:31:19;101028.00;;;4.29;100.00
61786;BME280;47692;53.714;11.372;2023-11-21T06:33:44;101037.50;;;4.28;100.00
61786;BME280;47692;53.714;11.372;2023-11-21T06:36:10;101038.28;;;4.19;100.00
61786;BME280;47692;53.714;11.372;2023-11-21T06:38:37;101042.59;;;4.19;100.00
61786;BME280;47692;53.714;11.372;2023-11-21T06:41:02;101051.16;;;4.15;100.00
61786;BME280;47692;53.714;11.372;2023-11-21T06:43:29;101053.75;;;4.16;100.00
61786;BME280;47692;53.714;11.372;2023-11-21T06:45:56;101055.53;;;4.20;100.00
61786;BME280;47692;53.714;11.372;2023-11-21T06:48:22;101065.88;;;4.24;100.00
61786;BME280;47692;53.714;11.372;2023-11-21T06:50:47;101063.28;;;4.20;100.00
61786;BME280;47692;53.714;11.372;2023-11-21T06:53:13;101071.03;;;4.24;100.00
61786;BME280;47692;53.714;11.372;2023-11-21T06:55:39;101073.56;;;4.16;100.00
61786;BME280;47692;53.714;11.372;2023-11-21T06:58:04;101081.25;;;4.10;100.00
61786;BME280;47692;53.714;11.372;2023-11-21T07:00:30;101084.63;;;4.04;100.00
61786;BME280;47692;53.714;11.372;2023-11-21T07:02:56;101086.34;;;4.00;100.00
61786;BME280;47692;53.714;11.372;2023-11-21T07:05:22;101083.69;;;3.94;100.00
61786;BME280;47692;53.714;11.372;2023-11-21T07:07:50;101103.53;;;3.97;100.00
61786;BME280;47692;53.714;11.372;2023-11-21T07:10:15;101102.63;;;3.95;100.00
61786;BME280;47692;53.714;11.372;2023-11-21T07:12:42;101107.03;;;4.02;100.00
61786;BME280;47692;53.714;11.372;2023-11-21T07:15:08;101119.94;;;4.00;100.00
61786;BME280;47692;53.714;11.372;2023-11-21T07:17:37;101116.53;;;4.06;100.00
61786;BME280;47692;53.714;11.372;2023-11-21T07:20:04;101116.53;;;4.04;100.00
61786;BME280;47692;53.714;11.372;2023-11-21T07:22:29;101122.53;;;4.05;100.00
61786;BME280;47692;53.714;11.372;2023-11-21T07:24:55;101119.19;;;4.12;100.00
61786;BME280;47692;53.714;11.372;2023-11-21T07:27:22;101134.69;;;4.12;100.00
61786;BME280;47692;53.714;11.372;2023-11-21T07:29:47;101139.91;;;4.15;100.00
61786;BME280;47692;53.714;11.372;2023-11-21T07:32:14;101142.50;;;4.15;100.00
61786;BME280;47692;53.714;11.372;2023-11-21T07:34:40;101145.06;;;4.15;100.00
61786;BME280;47692;53.714;11.372;2023-11-21T07:37:07;101151.94;;;4.16;100.00
61786;BME280;47692;53.714;11.372;2023-11-21T07:39:34;101151.94;;;4.13;100.00
61786;BME280;47692;53.714;11.372;2023-11-21T07:42:00;101160.59;;;4.18;100.00
61786;BME280;47692;53.714;11.372;2023-11-21T07:44:25;101153.75;;;4.20;100.00
61786;BME280;47692;53.714;11.372;2023-11-21T07:46:51;101155.47;;;4.22;100.00
61786;BME280;47692;53.714;11.372;2023-11-21T07:49:16;101164.94;;;4.23;100.00
61786;BME280;47692;53.714;11.372;2023-11-21T07:51:45;101152.84;;;4.18;100.00
61786;BME280;47692;53.714;11.372;2023-11-21T07:54:11;101158.91;;;4.20;100.00
61786;BME280;47692;53.714;11.372;2023-11-21T07:56:36;101163.25;;;4.26;100.00
61786;BME280;47692;53.714;11.372;2023-11-21T07:59:02;101166.69;;;4.25;100.00
61786;BME280;47692;53.714;11.372;2023-11-21T08:01:28;101176.16;;;4.25;100.00
61786;BME280;47692;53.714;11.372;2023-11-21T08:03:54;101183.09;;;4.26;100.00
61786;BME280;47692;53.714;11.372;2023-11-21T08:06:23;101182.19;;;4.25;100.00
61786;BME280;47692;53.714;11.372;2023-11-21T08:08:49;101191.78;;;4.34;100.00
61786;BME280;47692;53.714;11.372;2023-11-21T08:11:14;101190.00;;;4.30;100.00
61786;BME280;47692;53.714;11.372;2023-11-21T08:13:40;101195.22;;;4.33;100.00
61786;BME280;47692;53.714;11.372;2023-11-21T08:16:06;101191.75;;;4.31;100.00
61786;BME280;47692;53.714;11.372;2023-11-21T08:18:32;101198.59;;;4.29;100.00
61786;BME280;47692;53.714;11.372;2023-11-21T08:20:59;101195.19;;;4.30;100.00
61786;BME280;47692;53.714;11.372;2023-11-21T08:23:26;101203.84;;;4.35;100.00
61786;BME280;47692;53.714;11.372;2023-11-21T08:25:54;101204.78;;;4.42;100.00
61786;BME280;47692;53.714;11.372;2023-11-21T08:28:21;101211.66;;;4.40;100.00
61786;BME280;47692;53.714;11.372;2023-11-21T08:30:53;101216.00;;;4.42;100.00
61786;BME280;47692;53.714;11.372;2023-11-21T08:33:22;101217.72;;;4.40;100.00
61786;BME280;47692;53.714;11.372;2023-11-21T08:35:48;101228.09;;;4.45;100.00
61786;BME280;47692;53.714;11.372;2023-11-21T08:38:14;101231.56;;;4.48;100.00
61786;BME280;47692;53.714;11.372;2023-11-21T08:40:39;101235.06;;;4.52;100.00
61786;BME280;47692;53.714;11.372;2023-11-21T08:43:05;101229.88;;;4.50;100.00
61786;BME280;47692;53.714;11.372;2023-11-21T08:45:31;101232.47;;;4.53;100.00
61786;BME280;47692;53.714;11.372;2023-11-21T08:47:59;101238.63;;;4.62;100.00
61786;BME280;47692;53.714;11.372;2023-11-21T08:50:25;101241.16;;;4.57;100.00
61786;BME280;47692;53.714;11.372;2023-11-21T08:52:50;101241.13;;;4.54;100.00
61786;BME280;47692;53.714;11.372;2023-11-21T08:55:16;101250.72;;;4.66;100.00
61786;BME280;47692;53.714;11.372;2023-11-21T08:57:44;101258.56;;;4.74;100.00
61786;BME280;47692;53.714;11.372;2023-11-21T09:00:10;101255.03;;;4.65;100.00
61786;BME280;47692;53.714;11.372;2023-11-21T09:02:43;101255.88;;;4.63;100.00
61786;BME280;47692;53.714;11.372;2023-11-21T09:05:10;101267.97;;;4.67;100.00
61786;BME280;47692;53.714;11.372;2023-11-21T09:07:36;101271.47;;;4.72;100.00
61786;BME280;47692;53.714;11.372;2023-11-21T09:10:02;101269.72;;;4.68;100.00
61786;BME280;47692;53.714;11.372;2023-11-21T09:12:28;101282.78;;;4.82;100.00
61786;BME280;47692;53.714;11.372;2023-11-21T09:14:53;101290.56;;;4.83;100.00
61786;BME280;47692;53.714;11.372;2023-11-21T09:17:19;101292.28;;;4.81;100.00
61786;BME280;47692;53.714;11.372;2023-11-21T09:19:44;101288.03;;;4.90;100.00
61786;BME280;47692;53.714;11.372;2023-11-21T09:22:12;101289.69;;;4.83;100.00
61786;BME280;47692;53.714;11.372;2023-11-21T09:24:37;101293.19;;;4.85;100.00
61786;BME280;47692;53.714;11.372;2023-11-21T09:27:03;101295.78;;;4.87;100.00
61786;BME280;47692;53.714;11.372;2023-11-21T09:29:30;101289.75;;;4.91;100.00
61786;BME280;47692;53.714;11.372;2023-11-21T09:31:56;101299.28;;;4.92;100.00
61786;BME280;47692;53.714;11.372;2023-11-21T09:34:24;101306.19;;;4.93;100.00
61786;BME280;47692;53.714;11.372;2023-11-21T09:36:50;101315.63;;;4.89;100.00
61786;BME280;47692;53.714;11.372;2023-11-21T09:39:16;101320.03;;;4.95;100.00
61786;BME280;47692;53.714;11.372;2023-11-21T09:41:46;101313.88;;;4.87;100.00
61786;BME280;47692;53.714;11.372;2023-11-21T09:44:18;101319.88;;;4.82;100.00
61786;BME280;47692;53.714;11.372;2023-11-21T09:46:47;101324.19;;;4.82;100.00
61786;BME280;47692;53.714;11.372;2023-11-21T09:49:14;101331.03;;;4.75;100.00
61786;BME280;47692;53.714;11.372;2023-11-21T09:51:43;101337.00;;;4.71;100.00
61786;BME280;47692;53.714;11.372;2023-11-21T09:54:10;101347.41;;;4.77;100.00
61786;BME280;47692;53.714;11.372;2023-11-21T09:56:38;101348.25;;;4.75;100.00
61786;BME280;47692;53.714;11.372;2023-11-21T09:59:05;101347.31;;;4.68;100.00
61786;BME280;47692;53.714;11.372;2023-11-21T10:01:35;101345.50;;;4.61;100.00
61786;BME280;47692;53.714;11.372;2023-11-21T10:04:01;101353.34;;;4.68;100.00
61786;BME280;47692;53.714;11.372;2023-11-21T10:06:28;101348.13;;;4.64;100.00
61786;BME280;47692;53.714;11.372;2023-11-21T10:08:54;101348.97;;;4.63;100.00
61786;BME280;47692;53.714;11.372;2023-11-21T10:11:24;101350.66;;;4.61;100.00
61786;BME280;47692;53.714;11.372;2023-11-21T10:13:54;101355.06;;;4.68;100.00
61786;BME280;47692;53.714;11.372;2023-11-21T10:16:20;101359.41;;;4.69;100.00
61786;BME280;47692;53.714;11.372;2023-11-21T10:18:51;101360.25;;;4.69;100.00
61786;BME280;47692;53.714;11.372;2023-11-21T10:21:18;101365.50;;;4.76;100.00
61786;BME280;47692;53.714;11.372;2023-11-21T10:23:44;101359.47;;;4.75;100.00
61786;BME280;47692;53.714;11.372;2023-11-21T10:26:11;101363.75;;;4.75;100.00
61786;BME280;47692;53.714;11.372;2023-11-21T10:28:58;101371.66;;;4.85;100.00
61786;BME280;47692;53.714;11.372;2023-11-21T10:31:27;101354.38;;;4.84;100.00
61786;BME280;47692;53.714;11.372;2023-11-21T10:33:53;101371.72;;;4.92;100.00
61786;BME280;47692;53.714;11.372;2023-11-21T10:36:26;101368.25;;;4.90;100.00
61786;BME280;47692;53.714;11.372;2023-11-21T10:38:53;101373.47;;;4.96;100.00
61786;BME280;47692;53.714;11.372;2023-11-21T10:41:19;101380.41;;;4.97;100.00
61786;BME280;47692;53.714;11.372;2023-11-21T10:43:45;101383.00;;;4.97;100.00
61786;BME280;47692;53.714;11.372;2023-11-21T10:46:10;101387.44;;;5.09;100.00
61786;BME280;47692;53.714;11.372;2023-11-21T10:48:36;101387.44;;;5.10;100.00
61786;BME280;47692;53.714;11.372;2023-11-21T10:51:07;101389.25;;;5.17;100.00
61786;BME280;47692;53.714;11.372;2023-11-21T10:53:41;101383.19;;;5.14;100.00
61786;BME280;47692;53.714;11.372;2023-11-21T10:56:14;101384.94;;;5.16;100.00
61786;BME280;47692;53.714;11.372;2023-11-21T10:58:43;101393.53;;;5.14;100.00
61786;BME280;47692;53.714;11.372;2023-11-21T11:01:09;101390.09;;;5.16;100.00
61786;BME280;47692;53.714;11.372;2023-11-21T11:03:37;101386.63;;;5.14;100.00
61786;BME280;47692;53.714;11.372;2023-11-21T11:06:04;101393.53;;;5.14;100.00
61786;BME280;47692;53.714;11.372;2023-11-21T11:08:32;101396.19;;;5.18;100.00
61786;BME280;47692;53.714;11.372;2023-11-21T11:10:59;101392.69;;;5.16;100.00
61786;BME280;47692;53.714;11.372;2023-11-21T11:13:24;101391.84;;;5.19;100.00
61786;BME280;47692;53.714;11.372;2023-11-21T11:15:51;101384.09;;;5.17;100.00
61786;BME280;47692;53.714;11.372;2023-11-21T11:18:21;101384.88;;;5.12;100.00
61786;BME280;47692;53.714;11.372;2023-11-21T11:20:48;101390.94;;;5.12;100.00
61786;BME280;47692;53.714;11.372;2023-11-21T11:34:59;101423.81;;;5.21;100.00
61786;BME280;47692;53.714;11.372;2023-11-21T11:37:26;101422.00;;;5.14;100.00
61786;BME280;47692;53.714;11.372;2023-11-21T11:39:52;101416.06;;;5.21;100.00
61786;BME280;47692;53.714;11.372;2023-11-21T11:42:21;101418.59;;;5.20;100.00
61786;BME280;47692;53.714;11.372;2023-11-21T11:44:49;101420.38;;;5.24;100.00
61786;BME280;47692;53.714;11.372;2023-11-21T11:47:21;101420.34;;;5.21;100.00
61786;BME280;47692;53.714;11.372;2023-11-21T11:50:07;101427.38;;;5.31;100.00
61786;BME280;47692;53.714;11.372;2023-11-21T11:55:09;101430.88;;;5.36;100.00
61786;BME280;47692;53.714;11.372;2023-11-21T11:57:42;101437.69;;;5.28;99.75
61786;BME280;47692;53.714;11.372;2023-11-21T12:02:38;101436.06;;;5.36;99.30
61786;BME280;47692;53.714;11.372;2023-11-21T12:05:18;101438.66;;;5.41;99.49
61786;BME280;47692;53.714;11.372;2023-11-21T12:07:50;101435.22;;;5.39;98.61
61786;BME280;47692;53.714;11.372;2023-11-21T12:10:23;101437.75;;;5.34;97.38
61786;BME280;47692;53.714;11.372;2023-11-21T12:12:52;101448.16;;;5.37;97.62
61786;BME280;47692;53.714;11.372;2023-11-21T12:15:19;101449.00;;;5.38;97.58
61786;BME280;47692;53.714;11.372;2023-11-21T12:17:45;101457.69;;;5.41;98.00
61786;BME280;47692;53.714;11.372;2023-11-21T12:20:12;101467.13;;;5.36;97.53
61786;BME280;47692;53.714;11.372;2023-11-21T12:22:47;101459.38;;;5.39;96.94
61786;BME280;47692;53.714;11.372;2023-11-21T12:25:14;101461.88;;;5.30;94.40
61786;BME280;47692;53.714;11.372;2023-11-21T12:27:45;101459.28;;;5.28;92.99
61786;BME280;47692;53.714;11.372;2023-11-21T12:30:12;101467.06;;;5.30;92.88
61786;BME280;47692;53.714;11.372;2023-11-21T12:32:41;101470.44;;;5.23;92.57
61786;BME280;47692;53.714;11.372;2023-11-21T12:35:09;101465.19;;;5.16;93.18
61786;BME280;47692;53.714;11.372;2023-11-21T12:37:39;101468.63;;;5.15;93.25
61786;BME280;47692;53.714;11.372;2023-11-21T12:40:06;101479.88;;;5.21;93.71
61786;BME280;47692;53.714;11.372;2023-11-21T12:42:33;101481.78;;;5.34;93.04
61786;BME280;47692;53.714;11.372;2023-11-21T12:45:29;101484.38;;;5.34;91.52
61786;BME280;47692;53.714;11.372;2023-11-21T12:48:00;101488.72;;;5.38;91.00
61786;BME280;47692;53.714;11.372;2023-11-21T12:50:30;101480.88;;;5.32;89.85
61786;BME280;47692;53.714;11.372;2023-11-21T12:53:01;101492.97;;;5.33;90.13
61786;BME280;47692;53.714;11.372;2023-11-21T12:55:30;101499.03;;;5.33;90.03